Pagina principală
METAR-TAF:

METAR-TAF

Aeroporturi :

Tena, Ecuador

Latitudine: 01-03-35S, longitudine: 77-35-00W, elevație: 376 m

Observații meteo curente

Raportul a fost făcut în urmă cu 1 oră și 26 de minute, la 16:00 UTC
Vânt 2 kt de la Sud/Sud-vest
Temperatură 28°C
Umiditate 70%
Presiune 1013 hPa
Vizibilitate de 10 km sau mai mult
Nori împrăștiați la o înălțime de 3000 picior
Nori fragmentați la o înălțime de 10000 picior

METAR: SEJD 181600Z 20002KT 9999 SCT030 BKN100 28/22 Q1013 RMK A2994

Ora: 12:26 (17:26 UTC)


TAF: lipsă

Observații și prognoze meteo pentru peste 4.000 de aeroporturi (rapoarte METAR și TAF).

Stațiile disponibile sunt reprezentate pe hartă prin puncte galbene și roșii.

Țineți indicatorul mouse-ului pe punctul dorit pentru a vedea denumirea stației.

Apoi, faceți clic pentru a vedea observațiile și prognozele meteorologice.

Pentru a schimba harta: Pentru mărire, faceți clic pe butoanele verzi cu cruce neagră; pentru micșorare, pe butonul verde cu o liniuță; pentru hărți învecinate, pe săgețile verzi.


METAR-TAF: